LGMT Airport Information

Runway Information
Runway 14 Length 7894 ft width 148 ft
Elevation 57 ft Threshold 269 ft Heading 148
Runway 32 Length 7894 ft Width 148 ft
Elevation 21 ft Threshold 1755 ft Heading 328
Airport Frequencies
Type A/G Name RDO Frequency 563.7 MHZ
Type APP Name APP Frequency 122.1 MHZ
Type TWR Name TWR Frequency 122.1 MHZ
Airport Navaids
Type VOR-DME Name Lesvos Frequency 114200 KHZ
Type NDB Name Lesvos Frequency 397 KHZ
Type VOR-DME Name Mitilini Frequency 109600 KHZ
Airport Weather Information & NOTAM
ADDS - METARS form results

(0804 UTC 17 June 2021)
Data provider http://aviationweather.gov/metar/data/
 
METAR text: LGMT 170750Z VRB03KT 9999 FEW025 24/19 Q1018
Conditions at: LGMT (MITILINI , GR) observed 0750 UTC 17 June 2021
Temperature: 24.0°C (75°F)
Dewpoint: 19.0°C (66°F) [RH = 74%]
Pressure (altimeter): 30.06 inches Hg (1018.0 mb)
Winds: variable direction winds at 3 MPH (3 knots; 1.5 m/s)
Visibility: 6 or more miles (10+ km)
Ceiling: at least 12,000 feet AGL
Clouds: few clouds at 2500 feet AGL
Weather: no significant weather observed at this time

METAR text: LGMT 170720Z VRB03KT 9999 FEW025 23/18 Q1017
Conditions at: LGMT (MITILINI , GR) observed 0720 UTC 17 June 2021
Temperature: 23.0°C (73°F)
Dewpoint: 18.0°C (64°F) [RH = 73%]
Pressure (altimeter): 30.03 inches Hg (1017.0 mb)
Winds: variable direction winds at 3 MPH (3 knots; 1.5 m/s)
Visibility: 6 or more miles (10+ km)
Ceiling: at least 12,000 feet AGL
Clouds: few clouds at 2500 feet AGL
Weather: no significant weather observed at this time

Forecast for: LGMT (MITILINI , GR)
Text: TAF LGMT 170500Z 1706/1715 VRB03KT 9999 FEW025
Forecast period: 0600 to 1500 UTC 17 June 2021
Forecast type: FROM: standard forecast or significant change
Winds: variable direction winds at 3 MPH (3 knots; 1.5 m/s)
Visibility: 6 or more miles (10+ km)
Ceiling: at least 12,000 feet AGL
Clouds: few clouds at 2500 feet AGL
Weather: no significant weather forecast for this period